sensor_id;sensor_type;location;lat;lon;timestamp;temperature;humidity
10873;DHT22;34586;53.616;10.032;2022-10-22T00:01:56;14.90;99.90
10873;DHT22;34586;53.616;10.032;2022-10-22T00:04:22;14.90;99.90
10873;DHT22;34586;53.616;10.032;2022-10-22T00:06:47;14.80;99.90
10873;DHT22;34586;53.616;10.032;2022-10-22T00:09:13;14.90;99.90
10873;DHT22;34586;53.616;10.032;2022-10-22T00:11:40;14.90;99.90
10873;DHT22;34586;53.616;10.032;2022-10-22T00:14:06;14.90;99.90
10873;DHT22;34586;53.616;10.032;2022-10-22T00:16:31;14.90;99.90
10873;DHT22;34586;53.616;10.032;2022-10-22T00:18:57;14.90;99.90
10873;DHT22;34586;53.616;10.032;2022-10-22T00:21:22;14.90;99.90
10873;DHT22;34586;53.616;10.032;2022-10-22T00:23:48;14.90;99.90
10873;DHT22;34586;53.616;10.032;2022-10-22T00:26:13;14.90;99.90
10873;DHT22;34586;53.616;10.032;2022-10-22T00:28:39;14.90;99.90
10873;DHT22;34586;53.616;10.032;2022-10-22T00:31:05;14.90;99.90
10873;DHT22;34586;53.616;10.032;2022-10-22T00:33:31;14.90;99.90
10873;DHT22;34586;53.616;10.032;2022-10-22T00:35:57;14.90;99.90
10873;DHT22;34586;53.616;10.032;2022-10-22T00:38:23;14.90;99.90
10873;DHT22;34586;53.616;10.032;2022-10-22T00:40:48;14.90;99.90
10873;DHT22;34586;53.616;10.032;2022-10-22T00:43:17;14.90;99.90
10873;DHT22;34586;53.616;10.032;2022-10-22T00:45:43;14.90;99.90
10873;DHT22;34586;53.616;10.032;2022-10-22T00:48:12;14.90;99.90
10873;DHT22;34586;53.616;10.032;2022-10-22T00:50:51;14.90;99.90
10873;DHT22;34586;53.616;10.032;2022-10-22T00:53:30;14.90;99.90
10873;DHT22;34586;53.616;10.032;2022-10-22T00:55:57;14.90;99.90
10873;DHT22;34586;53.616;10.032;2022-10-22T00:58:26;14.90;99.90
10873;DHT22;34586;53.616;10.032;2022-10-22T01:00:52;14.90;99.90
10873;DHT22;34586;53.616;10.032;2022-10-22T01:03:18;14.90;99.90
10873;DHT22;34586;53.616;10.032;2022-10-22T01:05:50;14.90;99.90
10873;DHT22;34586;53.616;10.032;2022-10-22T01:08:26;14.90;99.90
10873;DHT22;34586;53.616;10.032;2022-10-22T01:11:16;14.90;99.90
10873;DHT22;34586;53.616;10.032;2022-10-22T01:14:07;14.90;99.90
10873;DHT22;34586;53.616;10.032;2022-10-22T01:16:48;14.90;99.90
10873;DHT22;34586;53.616;10.032;2022-10-22T01:20:02;14.90;99.90
10873;DHT22;34586;53.616;10.032;2022-10-22T01:22:26;14.90;99.90
10873;DHT22;34586;53.616;10.032;2022-10-22T01:25:08;14.90;99.90
10873;DHT22;34586;53.616;10.032;2022-10-22T01:27:58;14.90;99.90
10873;DHT22;34586;53.616;10.032;2022-10-22T01:30:26;14.90;99.90
10873;DHT22;34586;53.616;10.032;2022-10-22T01:32:55;14.90;99.90
10873;DHT22;34586;53.616;10.032;2022-10-22T01:35:31;14.90;99.90
10873;DHT22;34586;53.616;10.032;2022-10-22T01:38:00;14.80;99.90
10873;DHT22;34586;53.616;10.032;2022-10-22T01:40:28;14.70;99.90
10873;DHT22;34586;53.616;10.032;2022-10-22T01:43:05;14.70;99.90
10873;DHT22;34586;53.616;10.032;2022-10-22T01:45:35;14.70;99.90
10873;DHT22;34586;53.616;10.032;2022-10-22T01:56:14;14.30;99.90
10873;DHT22;34586;53.616;10.032;2022-10-22T01:58:44;14.30;99.90
10873;DHT22;34586;53.616;10.032;2022-10-22T02:04:34;14.20;99.90
10873;DHT22;34586;53.616;10.032;2022-10-22T02:07:05;14.20;99.90
10873;DHT22;34586;53.616;10.032;2022-10-22T02:09:32;14.20;99.90
10873;DHT22;34586;53.616;10.032;2022-10-22T02:12:02;14.20;99.90
10873;DHT22;34586;53.616;10.032;2022-10-22T02:14:29;14.10;99.90
10873;DHT22;34586;53.616;10.032;2022-10-22T02:16:56;14.00;99.90
10873;DHT22;34586;53.616;10.032;2022-10-22T02:19:39;14.00;99.90
10873;DHT22;34586;53.616;10.032;2022-10-22T02:22:06;14.00;99.90
10873;DHT22;34586;53.616;10.032;2022-10-22T02:24:32;14.00;99.90
10873;DHT22;34586;53.616;10.032;2022-10-22T02:29:36;13.90;99.90
10873;DHT22;34586;53.616;10.032;2022-10-22T02:32:05;13.90;99.90
10873;DHT22;34586;53.616;10.032;2022-10-22T02:34:32;13.90;99.90
10873;DHT22;34586;53.616;10.032;2022-10-22T02:37:00;13.80;99.90
10873;DHT22;34586;53.616;10.032;2022-10-22T02:39:26;13.80;99.90
10873;DHT22;34586;53.616;10.032;2022-10-22T02:41:52;13.70;99.90
10873;DHT22;34586;53.616;10.032;2022-10-22T02:44:20;13.60;99.90
10873;DHT22;34586;53.616;10.032;2022-10-22T02:46:47;13.60;99.90
10873;DHT22;34586;53.616;10.032;2022-10-22T02:49:12;13.50;99.90
10873;DHT22;34586;53.616;10.032;2022-10-22T02:51:38;13.50;99.90
10873;DHT22;34586;53.616;10.032;2022-10-22T02:54:04;13.40;99.90
10873;DHT22;34586;53.616;10.032;2022-10-22T02:56:30;13.40;99.90
10873;DHT22;34586;53.616;10.032;2022-10-22T02:58:55;13.30;99.90
10873;DHT22;34586;53.616;10.032;2022-10-22T03:01:21;13.30;99.90
10873;DHT22;34586;53.616;10.032;2022-10-22T03:03:46;13.20;99.90
10873;DHT22;34586;53.616;10.032;2022-10-22T03:06:12;13.20;99.90
10873;DHT22;34586;53.616;10.032;2022-10-22T03:08:37;13.20;99.90
10873;DHT22;34586;53.616;10.032;2022-10-22T03:11:03;13.10;99.90
10873;DHT22;34586;53.616;10.032;2022-10-22T03:13:28;13.10;99.90
10873;DHT22;34586;53.616;10.032;2022-10-22T03:15:54;13.00;99.90
10873;DHT22;34586;53.616;10.032;2022-10-22T03:18:19;13.00;99.90
10873;DHT22;34586;53.616;10.032;2022-10-22T03:20:45;13.00;99.90
10873;DHT22;34586;53.616;10.032;2022-10-22T03:23:13;12.90;99.90
10873;DHT22;34586;53.616;10.032;2022-10-22T03:25:42;12.90;99.90
10873;DHT22;34586;53.616;10.032;2022-10-22T03:28:10;12.90;99.90
10873;DHT22;34586;53.616;10.032;2022-10-22T03:30:38;12.90;99.90
10873;DHT22;34586;53.616;10.032;2022-10-22T03:33:03;13.00;99.90
10873;DHT22;34586;53.616;10.032;2022-10-22T03:35:30;12.90;99.90
10873;DHT22;34586;53.616;10.032;2022-10-22T03:37:59;12.80;99.90
10873;DHT22;34586;53.616;10.032;2022-10-22T03:40:25;12.80;99.90
10873;DHT22;34586;53.616;10.032;2022-10-22T03:42:51;12.80;99.90
10873;DHT22;34586;53.616;10.032;2022-10-22T03:45:17;12.80;99.90
10873;DHT22;34586;53.616;10.032;2022-10-22T03:47:42;12.80;99.90
10873;DHT22;34586;53.616;10.032;2022-10-22T03:50:08;12.80;99.90
10873;DHT22;34586;53.616;10.032;2022-10-22T03:52:36;12.80;99.90
10873;DHT22;34586;53.616;10.032;2022-10-22T03:55:03;12.80;99.90
10873;DHT22;34586;53.616;10.032;2022-10-22T03:57:29;12.70;99.90
10873;DHT22;34586;53.616;10.032;2022-10-22T03:59:54;12.70;99.90
10873;DHT22;34586;53.616;10.032;2022-10-22T04:02:20;12.70;99.90
10873;DHT22;34586;53.616;10.032;2022-10-22T04:04:46;12.70;99.90
10873;DHT22;34586;53.616;10.032;2022-10-22T04:07:11;12.70;99.90
10873;DHT22;34586;53.616;10.032;2022-10-22T04:09:37;12.60;99.90
10873;DHT22;34586;53.616;10.032;2022-10-22T04:12:03;12.60;99.90
10873;DHT22;34586;53.616;10.032;2022-10-22T04:14:30;12.60;99.90
10873;DHT22;34586;53.616;10.032;2022-10-22T04:16:56;12.60;99.90
10873;DHT22;34586;53.616;10.032;2022-10-22T04:19:22;12.60;99.90
10873;DHT22;34586;53.616;10.032;2022-10-22T04:21:47;12.50;99.90
10873;DHT22;34586;53.616;10.032;2022-10-22T04:24:13;12.50;99.90
10873;DHT22;34586;53.616;10.032;2022-10-22T04:26:38;12.50;99.90
10873;DHT22;34586;53.616;10.032;2022-10-22T04:29:05;12.50;99.90
10873;DHT22;34586;53.616;10.032;2022-10-22T04:31:31;12.40;99.90
10873;DHT22;34586;53.616;10.032;2022-10-22T04:33:58;12.40;99.90
10873;DHT22;34586;53.616;10.032;2022-10-22T04:36:25;12.50;99.90
10873;DHT22;34586;53.616;10.032;2022-10-22T04:38:53;12.40;99.90
10873;DHT22;34586;53.616;10.032;2022-10-22T04:41:24;12.40;99.90
10873;DHT22;34586;53.616;10.032;2022-10-22T04:43:51;12.40;99.90
10873;DHT22;34586;53.616;10.032;2022-10-22T04:46:17;12.40;99.90
10873;DHT22;34586;53.616;10.032;2022-10-22T04:48:44;12.40;99.90
10873;DHT22;34586;53.616;10.032;2022-10-22T04:51:12;12.40;99.90
10873;DHT22;34586;53.616;10.032;2022-10-22T04:53:39;12.30;99.90
10873;DHT22;34586;53.616;10.032;2022-10-22T04:56:15;12.30;99.90
10873;DHT22;34586;53.616;10.032;2022-10-22T04:58:44;12.30;99.90
10873;DHT22;34586;53.616;10.032;2022-10-22T05:01:11;12.30;99.90
10873;DHT22;34586;53.616;10.032;2022-10-22T05:03:38;12.30;99.90
10873;DHT22;34586;53.616;10.032;2022-10-22T05:06:04;12.30;99.90
10873;DHT22;34586;53.616;10.032;2022-10-22T05:08:29;12.30;99.90
10873;DHT22;34586;53.616;10.032;2022-10-22T05:10:55;12.20;99.90
10873;DHT22;34586;53.616;10.032;2022-10-22T05:13:20;12.20;99.90
10873;DHT22;34586;53.616;10.032;2022-10-22T05:15:46;12.20;99.90
10873;DHT22;34586;53.616;10.032;2022-10-22T05:18:11;12.20;99.90
10873;DHT22;34586;53.616;10.032;2022-10-22T05:20:40;12.20;99.90
10873;DHT22;34586;53.616;10.032;2022-10-22T05:23:06;12.20;99.90
10873;DHT22;34586;53.616;10.032;2022-10-22T05:25:36;12.20;99.90
10873;DHT22;34586;53.616;10.032;2022-10-22T05:28:02;12.20;99.90
10873;DHT22;34586;53.616;10.032;2022-10-22T05:30:28;12.20;99.90
10873;DHT22;34586;53.616;10.032;2022-10-22T05:32:53;12.30;99.90
10873;DHT22;34586;53.616;10.032;2022-10-22T05:35:18;12.30;99.90
10873;DHT22;34586;53.616;10.032;2022-10-22T05:37:44;12.30;99.90
10873;DHT22;34586;53.616;10.032;2022-10-22T05:40:10;12.30;99.90
10873;DHT22;34586;53.616;10.032;2022-10-22T05:42:36;12.40;99.90
10873;DHT22;34586;53.616;10.032;2022-10-22T05:45:01;12.40;99.90
10873;DHT22;34586;53.616;10.032;2022-10-22T05:47:28;12.40;99.90
10873;DHT22;34586;53.616;10.032;2022-10-22T05:49:54;12.50;99.90
10873;DHT22;34586;53.616;10.032;2022-10-22T05:52:22;12.50;99.90
10873;DHT22;34586;53.616;10.032;2022-10-22T05:54:47;12.50;99.90
10873;DHT22;34586;53.616;10.032;2022-10-22T05:57:13;12.50;99.90
10873;DHT22;34586;53.616;10.032;2022-10-22T05:59:38;12.50;99.90
10873;DHT22;34586;53.616;10.032;2022-10-22T06:02:04;12.60;99.90
10873;DHT22;34586;53.616;10.032;2022-10-22T06:04:29;12.60;99.90
10873;DHT22;34586;53.616;10.032;2022-10-22T06:06:55;12.60;99.90
10873;DHT22;34586;53.616;10.032;2022-10-22T06:09:27;12.60;99.90
10873;DHT22;34586;53.616;10.032;2022-10-22T06:11:54;12.60;99.90
10873;DHT22;34586;53.616;10.032;2022-10-22T06:14:20;12.70;99.90
10873;DHT22;34586;53.616;10.032;2022-10-22T06:16:46;12.70;99.90
10873;DHT22;34586;53.616;10.032;2022-10-22T06:19:13;12.70;99.90
10873;DHT22;34586;53.616;10.032;2022-10-22T06:21:39;12.70;99.90
10873;DHT22;34586;53.616;10.032;2022-10-22T06:24:05;12.70;99.90
10873;DHT22;34586;53.616;10.032;2022-10-22T06:26:31;12.70;99.90
10873;DHT22;34586;53.616;10.032;2022-10-22T06:28:58;12.70;99.90
10873;DHT22;34586;53.616;10.032;2022-10-22T06:31:24;12.70;99.90
10873;DHT22;34586;53.616;10.032;2022-10-22T06:33:50;12.70;99.90
10873;DHT22;34586;53.616;10.032;2022-10-22T06:36:19;12.70;99.90
10873;DHT22;34586;53.616;10.032;2022-10-22T06:38:45;12.70;99.90
10873;DHT22;34586;53.616;10.032;2022-10-22T06:41:15;12.70;99.90
10873;DHT22;34586;53.616;10.032;2022-10-22T06:43:42;12.70;99.90
10873;DHT22;34586;53.616;10.032;2022-10-22T06:46:09;12.70;99.90
10873;DHT22;34586;53.616;10.032;2022-10-22T06:48:36;12.80;99.90
10873;DHT22;34586;53.616;10.032;2022-10-22T06:51:11;12.80;99.90
10873;DHT22;34586;53.616;10.032;2022-10-22T06:53:38;12.80;99.90
10873;DHT22;34586;53.616;10.032;2022-10-22T06:56:16;12.90;99.90
10873;DHT22;34586;53.616;10.032;2022-10-22T06:58:41;12.90;99.90
10873;DHT22;34586;53.616;10.032;2022-10-22T07:01:12;12.90;99.90
10873;DHT22;34586;53.616;10.032;2022-10-22T07:03:38;13.00;99.90
10873;DHT22;34586;53.616;10.032;2022-10-22T07:06:11;13.00;99.90
10873;DHT22;34586;53.616;10.032;2022-10-22T07:08:38;13.00;99.90
10873;DHT22;34586;53.616;10.032;2022-10-22T07:11:06;13.00;99.90
10873;DHT22;34586;53.616;10.032;2022-10-22T07:13:32;13.10;99.90
10873;DHT22;34586;53.616;10.032;2022-10-22T07:15:58;13.10;99.90
10873;DHT22;34586;53.616;10.032;2022-10-22T07:18:23;13.10;99.90
10873;DHT22;34586;53.616;10.032;2022-10-22T07:20:49;13.10;99.90
10873;DHT22;34586;53.616;10.032;2022-10-22T07:23:15;13.10;99.90
10873;DHT22;34586;53.616;10.032;2022-10-22T07:25:40;13.20;99.90
10873;DHT22;34586;53.616;10.032;2022-10-22T07:28:06;13.20;99.90
10873;DHT22;34586;53.616;10.032;2022-10-22T07:30:33;13.20;99.90
10873;DHT22;34586;53.616;10.032;2022-10-22T07:32:59;13.30;99.90
10873;DHT22;34586;53.616;10.032;2022-10-22T07:35:24;13.30;99.90
10873;DHT22;34586;53.616;10.032;2022-10-22T07:37:50;13.30;99.90
10873;DHT22;34586;53.616;10.032;2022-10-22T07:40:16;13.40;99.90
10873;DHT22;34586;53.616;10.032;2022-10-22T07:42:41;13.40;99.90
10873;DHT22;34586;53.616;10.032;2022-10-22T07:45:07;13.50;99.90
10873;DHT22;34586;53.616;10.032;2022-10-22T07:47:33;13.50;99.90
10873;DHT22;34586;53.616;10.032;2022-10-22T07:49:58;13.60;99.90
10873;DHT22;34586;53.616;10.032;2022-10-22T07:52:24;13.60;99.90
10873;DHT22;34586;53.616;10.032;2022-10-22T07:54:49;13.70;99.90
10873;DHT22;34586;53.616;10.032;2022-10-22T07:57:15;13.70;99.90
10873;DHT22;34586;53.616;10.032;2022-10-22T07:59:40;13.80;99.90
10873;DHT22;34586;53.616;10.032;2022-10-22T08:02:06;13.80;99.90
10873;DHT22;34586;53.616;10.032;2022-10-22T08:04:31;13.80;99.90
10873;DHT22;34586;53.616;10.032;2022-10-22T08:06:57;13.90;99.90
10873;DHT22;34586;53.616;10.032;2022-10-22T08:09:22;13.90;99.90
10873;DHT22;34586;53.616;10.032;2022-10-22T08:11:48;13.90;99.90
10873;DHT22;34586;53.616;10.032;2022-10-22T08:14:14;13.90;99.90
10873;DHT22;34586;53.616;10.032;2022-10-22T08:16:40;13.90;99.90
10873;DHT22;34586;53.616;10.032;2022-10-22T08:19:06;13.90;99.90
10873;DHT22;34586;53.616;10.032;2022-10-22T08:21:31;13.90;99.90
10873;DHT22;34586;53.616;10.032;2022-10-22T08:23:57;13.90;99.90
10873;DHT22;34586;53.616;10.032;2022-10-22T08:26:22;13.90;99.90
10873;DHT22;34586;53.616;10.032;2022-10-22T08:28:48;13.90;99.90
10873;DHT22;34586;53.616;10.032;2022-10-22T08:31:13;13.90;99.90
10873;DHT22;34586;53.616;10.032;2022-10-22T08:33:39;14.00;99.90
10873;DHT22;34586;53.616;10.032;2022-10-22T08:36:06;13.90;99.90
10873;DHT22;34586;53.616;10.032;2022-10-22T08:38:32;13.90;99.90
10873;DHT22;34586;53.616;10.032;2022-10-22T08:41:08;13.90;99.90
10873;DHT22;34586;53.616;10.032;2022-10-22T08:46:45;14.00;99.90
10873;DHT22;34586;53.616;10.032;2022-10-22T08:49:26;14.00;99.90
10873;DHT22;34586;53.616;10.032;2022-10-22T08:51:54;14.10;99.90
10873;DHT22;34586;53.616;10.032;2022-10-22T08:58:20;14.20;99.90
10873;DHT22;34586;53.616;10.032;2022-10-22T09:00:51;14.30;99.90
10873;DHT22;34586;53.616;10.032;2022-10-22T09:06:24;14.60;99.90
10873;DHT22;34586;53.616;10.032;2022-10-22T09:08:51;14.70;99.90
10873;DHT22;34586;53.616;10.032;2022-10-22T09:11:36;14.80;99.90
10873;DHT22;34586;53.616;10.032;2022-10-22T09:14:03;14.90;99.90
10873;DHT22;34586;53.616;10.032;2022-10-22T09:19:16;15.00;99.90
10873;DHT22;34586;53.616;10.032;2022-10-22T09:24:43;15.10;99.90
10873;DHT22;34586;53.616;10.032;2022-10-22T09:27:18;15.20;99.90
10873;DHT22;34586;53.616;10.032;2022-10-22T09:29:45;15.20;99.90
10873;DHT22;34586;53.616;10.032;2022-10-22T09:32:11;15.30;99.90
10873;DHT22;34586;53.616;10.032;2022-10-22T09:34:37;15.40;99.90
10873;DHT22;34586;53.616;10.032;2022-10-22T09:37:06;15.40;99.90
10873;DHT22;34586;53.616;10.032;2022-10-22T09:39:36;15.60;99.90
10873;DHT22;34586;53.616;10.032;2022-10-22T09:42:02;15.70;99.90
10873;DHT22;34586;53.616;10.032;2022-10-22T09:44:28;15.50;99.90
10873;DHT22;34586;53.616;10.032;2022-10-22T09:46:57;15.70;99.90
10873;DHT22;34586;53.616;10.032;2022-10-22T09:49:22;15.70;99.90
10873;DHT22;34586;53.616;10.032;2022-10-22T09:51:51;15.70;99.90
10873;DHT22;34586;53.616;10.032;2022-10-22T09:54:22;15.70;99.90
10873;DHT22;34586;53.616;10.032;2022-10-22T09:56:54;15.70;99.90
10873;DHT22;34586;53.616;10.032;2022-10-22T09:59:26;15.80;99.90
10873;DHT22;34586;53.616;10.032;2022-10-22T10:02:25;15.90;99.90
10873;DHT22;34586;53.616;10.032;2022-10-22T10:04:54;15.90;99.90
10873;DHT22;34586;53.616;10.032;2022-10-22T10:07:21;16.00;99.90
10873;DHT22;34586;53.616;10.032;2022-10-22T10:09:47;16.10;99.90
10873;DHT22;34586;53.616;10.032;2022-10-22T10:18:16;16.20;99.90
10873;DHT22;34586;53.616;10.032;2022-10-22T10:21:08;16.30;99.90
10873;DHT22;34586;53.616;10.032;2022-10-22T10:23:47;16.40;99.90
10873;DHT22;34586;53.616;10.032;2022-10-22T10:34:42;16.40;99.90
10873;DHT22;34586;53.616;10.032;2022-10-22T10:40:10;16.50;99.90
10873;DHT22;34586;53.616;10.032;2022-10-22T10:42:43;16.50;99.90
10873;DHT22;34586;53.616;10.032;2022-10-22T10:45:25;16.60;99.90
10873;DHT22;34586;53.616;10.032;2022-10-22T10:51:20;16.70;99.90
10873;DHT22;34586;53.616;10.032;2022-10-22T11:00:11;17.00;99.90
10873;DHT22;34586;53.616;10.032;2022-10-22T11:06:10;17.90;99.60
10873;DHT22;34586;53.616;10.032;2022-10-22T11:08:40;17.00;77.00
10873;DHT22;34586;53.616;10.032;2022-10-22T11:11:16;17.10;54.40
10873;DHT22;34586;53.616;10.032;2022-10-22T11:16:54;17.30;57.50
10873;DHT22;34586;53.616;10.032;2022-10-22T11:19:42;17.50;1.00
10873;DHT22;34586;53.616;10.032;2022-10-22T11:22:25;17.70;1.00
10873;DHT22;34586;53.616;10.032;2022-10-22T11:25:05;17.80;1.00
10873;DHT22;34586;53.616;10.032;2022-10-22T11:27:44;18.00;1.00
10873;DHT22;34586;53.616;10.032;2022-10-22T11:30:13;17.90;1.00
10873;DHT22;34586;53.616;10.032;2022-10-22T11:32:41;18.10;1.00
10873;DHT22;34586;53.616;10.032;2022-10-22T11:35:12;18.20;1.00
10873;DHT22;34586;53.616;10.032;2022-10-22T11:37:39;18.20;99.90
10873;DHT22;34586;53.616;10.032;2022-10-22T11:40:14;18.20;99.90
10873;DHT22;34586;53.616;10.032;2022-10-22T11:42:48;18.30;99.90
10873;DHT22;34586;53.616;10.032;2022-10-22T12:08:30;19.60;1.00
10873;DHT22;34586;53.616;10.032;2022-10-22T12:19:04;21.30;1.00
10873;DHT22;34586;53.616;10.032;2022-10-22T12:21:32;21.70;84.00
10873;DHT22;34586;53.616;10.032;2022-10-22T12:23:59;21.80;99.90
10873;DHT22;34586;53.616;10.032;2022-10-22T12:26:29;21.90;1.00
10873;DHT22;34586;53.616;10.032;2022-10-22T12:28:57;22.00;99.90
10873;DHT22;34586;53.616;10.032;2022-10-22T12:31:23;21.90;99.90
10873;DHT22;34586;53.616;10.032;2022-10-22T12:33:56;21.80;1.00
10873;DHT22;34586;53.616;10.032;2022-10-22T12:36:21;21.60;1.00
10873;DHT22;34586;53.616;10.032;2022-10-22T12:38:47;21.00;1.00
10873;DHT22;34586;53.616;10.032;2022-10-22T12:41:12;20.40;1.00
10873;DHT22;34586;53.616;10.032;2022-10-22T12:43:38;20.00;1.00
10873;DHT22;34586;53.616;10.032;2022-10-22T12:46:12;19.80;99.90
10873;DHT22;34586;53.616;10.032;2022-10-22T12:48:41;19.80;99.90
10873;DHT22;34586;53.616;10.032;2022-10-22T12:51:08;19.70;1.00
10873;DHT22;34586;53.616;10.032;2022-10-22T12:53:44;19.60;1.00
10873;DHT22;34586;53.616;10.032;2022-10-22T12:56:16;19.30;1.00
10873;DHT22;34586;53.616;10.032;2022-10-22T12:58:56;19.10;1.00
10873;DHT22;34586;53.616;10.032;2022-10-22T13:01:26;19.10;1.00
10873;DHT22;34586;53.616;10.032;2022-10-22T13:04:05;19.00;99.90
10873;DHT22;34586;53.616;10.032;2022-10-22T13:06:33;19.00;99.90
10873;DHT22;34586;53.616;10.032;2022-10-22T13:11:36;18.90;1.00
10873;DHT22;34586;53.616;10.032;2022-10-22T13:14:04;19.00;99.90
10873;DHT22;34586;53.616;10.032;2022-10-22T13:16:30;19.20;45.90
10873;DHT22;34586;53.616;10.032;2022-10-22T13:18:56;19.30;1.00
10873;DHT22;34586;53.616;10.032;2022-10-22T13:24:03;19.50;1.00
10873;DHT22;34586;53.616;10.032;2022-10-22T13:26:42;19.40;1.00
10873;DHT22;34586;53.616;10.032;2022-10-22T13:29:16;19.60;1.00
10873;DHT22;34586;53.616;10.032;2022-10-22T13:31:45;19.70;99.90
10873;DHT22;34586;53.616;10.032;2022-10-22T13:34:14;19.70;99.90
10873;DHT22;34586;53.616;10.032;2022-10-22T13:36:41;19.80;82.40
10873;DHT22;34586;53.616;10.032;2022-10-22T13:39:14;19.90;99.90
10873;DHT22;34586;53.616;10.032;2022-10-22T13:41:41;19.80;65.60
10873;DHT22;34586;53.616;10.032;2022-10-22T13:44:06;19.80;1.00
10873;DHT22;34586;53.616;10.032;2022-10-22T13:46:32;19.80;1.00
10873;DHT22;34586;53.616;10.032;2022-10-22T13:49:03;19.80;1.00
10873;DHT22;34586;53.616;10.032;2022-10-22T13:51:32;19.70;99.90
10873;DHT22;34586;53.616;10.032;2022-10-22T13:53:59;19.70;99.90
10873;DHT22;34586;53.616;10.032;2022-10-22T13:56:25;19.60;1.00
10873;DHT22;34586;53.616;10.032;2022-10-22T13:58:51;19.60;1.00
10873;DHT22;34586;53.616;10.032;2022-10-22T14:01:27;19.50;99.90
10873;DHT22;34586;53.616;10.032;2022-10-22T14:03:55;19.30;99.90
10873;DHT22;34586;53.616;10.032;2022-10-22T14:06:23;19.20;1.00
10873;DHT22;34586;53.616;10.032;2022-10-22T14:08:55;18.80;99.90
10873;DHT22;34586;53.616;10.032;2022-10-22T14:11:23;18.80;1.00
10873;DHT22;34586;53.616;10.032;2022-10-22T14:13:49;18.60;1.00
10873;DHT22;34586;53.616;10.032;2022-10-22T14:16:23;18.60;99.90
10873;DHT22;34586;53.616;10.032;2022-10-22T14:18:49;18.60;99.90
10873;DHT22;34586;53.616;10.032;2022-10-22T14:21:16;18.70;99.90
10873;DHT22;34586;53.616;10.032;2022-10-22T14:23:44;18.70;1.00
10873;DHT22;34586;53.616;10.032;2022-10-22T14:26:36;18.70;99.90
10873;DHT22;34586;53.616;10.032;2022-10-22T14:29:02;18.90;1.00
10873;DHT22;34586;53.616;10.032;2022-10-22T14:31:27;19.00;99.90
10873;DHT22;34586;53.616;10.032;2022-10-22T14:33:53;19.20;1.00
10873;DHT22;34586;53.616;10.032;2022-10-22T14:36:19;19.30;1.00
10873;DHT22;34586;53.616;10.032;2022-10-22T14:38:46;19.30;99.90
10873;DHT22;34586;53.616;10.032;2022-10-22T14:41:23;19.50;1.00
10873;DHT22;34586;53.616;10.032;2022-10-22T14:43:49;19.30;99.90
10873;DHT22;34586;53.616;10.032;2022-10-22T14:46:15;19.30;1.00
10873;DHT22;34586;53.616;10.032;2022-10-22T14:48:41;19.30;73.70
10873;DHT22;34586;53.616;10.032;2022-10-22T14:51:15;19.20;99.90
10873;DHT22;34586;53.616;10.032;2022-10-22T14:53:42;19.00;1.00
10873;DHT22;34586;53.616;10.032;2022-10-22T14:56:15;18.90;1.00
10873;DHT22;34586;53.616;10.032;2022-10-22T14:58:41;18.80;99.90
10873;DHT22;34586;53.616;10.032;2022-10-22T15:01:07;18.50;99.90
10873;DHT22;34586;53.616;10.032;2022-10-22T15:03:33;18.30;99.90
10873;DHT22;34586;53.616;10.032;2022-10-22T15:05:58;18.20;99.90
10873;DHT22;34586;53.616;10.032;2022-10-22T15:08:25;18.10;47.10
10873;DHT22;34586;53.616;10.032;2022-10-22T15:11:06;18.10;99.90
10873;DHT22;34586;53.616;10.032;2022-10-22T15:13:32;18.10;1.00
10873;DHT22;34586;53.616;10.032;2022-10-22T15:15:59;18.10;99.90
10873;DHT22;34586;53.616;10.032;2022-10-22T15:18:25;18.00;1.00
10873;DHT22;34586;53.616;10.032;2022-10-22T15:21:15;18.10;1.00
10873;DHT22;34586;53.616;10.032;2022-10-22T15:23:41;18.00;1.00
10873;DHT22;34586;53.616;10.032;2022-10-22T15:26:08;18.10;1.00
10873;DHT22;34586;53.616;10.032;2022-10-22T15:28:35;18.00;1.00
10873;DHT22;34586;53.616;10.032;2022-10-22T15:31:01;18.00;1.00
10873;DHT22;34586;53.616;10.032;2022-10-22T15:33:27;17.90;1.00
10873;DHT22;34586;53.616;10.032;2022-10-22T15:35:54;17.80;99.90
10873;DHT22;34586;53.616;10.032;2022-10-22T15:38:20;17.70;99.90
10873;DHT22;34586;53.616;10.032;2022-10-22T15:40:46;17.60;1.00
10873;DHT22;34586;53.616;10.032;2022-10-22T15:43:12;17.60;1.00
10873;DHT22;34586;53.616;10.032;2022-10-22T15:45:39;17.60;1.00
10873;DHT22;34586;53.616;10.032;2022-10-22T15:48:04;17.50;1.00
10873;DHT22;34586;53.616;10.032;2022-10-22T15:50:30;17.50;1.00
10873;DHT22;34586;53.616;10.032;2022-10-22T15:52:56;17.50;1.00
10873;DHT22;34586;53.616;10.032;2022-10-22T15:55:22;17.40;1.00
10873;DHT22;34586;53.616;10.032;2022-10-22T15:57:47;17.40;1.00
10873;DHT22;34586;53.616;10.032;2022-10-22T16:00:19;17.40;1.00
10873;DHT22;34586;53.616;10.032;2022-10-22T16:02:45;17.30;1.00
10873;DHT22;34586;53.616;10.032;2022-10-22T16:05:11;17.30;1.00
10873;DHT22;34586;53.616;10.032;2022-10-22T16:07:36;17.20;1.00
10873;DHT22;34586;53.616;10.032;2022-10-22T16:10:03;17.20;1.00
10873;DHT22;34586;53.616;10.032;2022-10-22T16:12:29;17.10;1.00
10873;DHT22;34586;53.616;10.032;2022-10-22T16:14:54;17.10;1.00
10873;DHT22;34586;53.616;10.032;2022-10-22T16:17:20;17.10;1.00
10873;DHT22;34586;53.616;10.032;2022-10-22T16:19:46;17.10;1.00
10873;DHT22;34586;53.616;10.032;2022-10-22T16:22:12;17.00;1.00
10873;DHT22;34586;53.616;10.032;2022-10-22T16:24:39;17.00;1.00
10873;DHT22;34586;53.616;10.032;2022-10-22T16:27:06;16.90;1.00
10873;DHT22;34586;53.616;10.032;2022-10-22T16:29:32;16.80;1.00
10873;DHT22;34586;53.616;10.032;2022-10-22T16:31:58;16.80;1.00
10873;DHT22;34586;53.616;10.032;2022-10-22T16:34:26;16.90;1.00
10873;DHT22;34586;53.616;10.032;2022-10-22T16:36:52;16.80;1.00
10873;DHT22;34586;53.616;10.032;2022-10-22T16:39:18;16.70;1.00
10873;DHT22;34586;53.616;10.032;2022-10-22T16:41:43;16.70;1.00
10873;DHT22;34586;53.616;10.032;2022-10-22T16:44:09;16.70;1.00
10873;DHT22;34586;53.616;10.032;2022-10-22T16:46:36;16.70;1.00
10873;DHT22;34586;53.616;10.032;2022-10-22T16:49:03;16.60;4.60
10873;DHT22;34586;53.616;10.032;2022-10-22T16:51:29;16.70;6.10
10873;DHT22;34586;53.616;10.032;2022-10-22T16:53:55;16.60;22.10
10873;DHT22;34586;53.616;10.032;2022-10-22T16:56:22;16.60;33.40
10873;DHT22;34586;53.616;10.032;2022-10-22T16:58:49;16.60;58.10
10873;DHT22;34586;53.616;10.032;2022-10-22T17:01:16;16.60;67.10
10873;DHT22;34586;53.616;10.032;2022-10-22T17:03:42;16.50;88.70
10873;DHT22;34586;53.616;10.032;2022-10-22T17:06:08;16.50;95.70
10873;DHT22;34586;53.616;10.032;2022-10-22T17:08:34;16.40;99.90